sensor_id;sensor_type;location;lat;lon;timestamp;temperature;humidity
25440;DHT22;13365;52.208;5.488;2023-08-30T00:01:57;19.90;87.90
25440;DHT22;13365;52.208;5.488;2023-08-30T00:04:23;19.90;88.00
25440;DHT22;13365;52.208;5.488;2023-08-30T00:06:49;19.90;87.80
25440;DHT22;13365;52.208;5.488;2023-08-30T00:09:14;19.90;87.90
25440;DHT22;13365;52.208;5.488;2023-08-30T00:11:40;19.80;87.60
25440;DHT22;13365;52.208;5.488;2023-08-30T00:14:06;19.80;87.90
25440;DHT22;13365;52.208;5.488;2023-08-30T00:16:33;19.80;87.70
25440;DHT22;13365;52.208;5.488;2023-08-30T00:18:59;19.70;87.80
25440;DHT22;13365;52.208;5.488;2023-08-30T00:21:25;19.60;87.80
25440;DHT22;13365;52.208;5.488;2023-08-30T00:23:51;19.60;87.90
25440;DHT22;13365;52.208;5.488;2023-08-30T00:26:17;19.50;87.90
25440;DHT22;13365;52.208;5.488;2023-08-30T00:28:42;19.50;88.00
25440;DHT22;13365;52.208;5.488;2023-08-30T00:31:08;19.40;88.00
25440;DHT22;13365;52.208;5.488;2023-08-30T00:33:33;19.40;88.00
25440;DHT22;13365;52.208;5.488;2023-08-30T00:35:59;19.40;88.10
25440;DHT22;13365;52.208;5.488;2023-08-30T00:38:26;19.40;88.10
25440;DHT22;13365;52.208;5.488;2023-08-30T00:40:52;19.30;88.10
25440;DHT22;13365;52.208;5.488;2023-08-30T00:43:18;19.30;88.20
25440;DHT22;13365;52.208;5.488;2023-08-30T00:45:44;19.30;88.30
25440;DHT22;13365;52.208;5.488;2023-08-30T00:48:10;19.20;88.20
25440;DHT22;13365;52.208;5.488;2023-08-30T00:50:36;19.20;88.20
25440;DHT22;13365;52.208;5.488;2023-08-30T00:53:03;19.20;88.40
25440;DHT22;13365;52.208;5.488;2023-08-30T00:55:32;19.20;88.60
25440;DHT22;13365;52.208;5.488;2023-08-30T00:57:59;19.10;88.70
25440;DHT22;13365;52.208;5.488;2023-08-30T01:00:25;19.10;89.00
25440;DHT22;13365;52.208;5.488;2023-08-30T01:02:51;19.10;89.30
25440;DHT22;13365;52.208;5.488;2023-08-30T01:05:16;19.10;89.40
25440;DHT22;13365;52.208;5.488;2023-08-30T01:07:43;19.10;89.50
25440;DHT22;13365;52.208;5.488;2023-08-30T01:10:09;19.20;89.70
25440;DHT22;13365;52.208;5.488;2023-08-30T01:12:49;19.20;89.60
25440;DHT22;13365;52.208;5.488;2023-08-30T01:15:19;19.20;89.90
25440;DHT22;13365;52.208;5.488;2023-08-30T01:17:48;19.20;90.00
25440;DHT22;13365;52.208;5.488;2023-08-30T01:20:15;19.30;90.00
25440;DHT22;13365;52.208;5.488;2023-08-30T01:23:09;19.30;89.90
25440;DHT22;13365;52.208;5.488;2023-08-30T01:25:50;19.30;90.00
25440;DHT22;13365;52.208;5.488;2023-08-30T01:28:23;19.30;90.00
25440;DHT22;13365;52.208;5.488;2023-08-30T01:30:50;19.30;90.00
25440;DHT22;13365;52.208;5.488;2023-08-30T01:33:20;19.20;90.10
25440;DHT22;13365;52.208;5.488;2023-08-30T01:35:46;19.30;90.00
25440;DHT22;13365;52.208;5.488;2023-08-30T01:38:12;19.40;90.00
25440;DHT22;13365;52.208;5.488;2023-08-30T01:40:44;19.40;89.90
25440;DHT22;13365;52.208;5.488;2023-08-30T01:43:10;19.40;90.00
25440;DHT22;13365;52.208;5.488;2023-08-30T01:45:41;19.40;89.80
25440;DHT22;13365;52.208;5.488;2023-08-30T01:48:09;19.40;89.90
25440;DHT22;13365;52.208;5.488;2023-08-30T01:50:36;19.50;89.70
25440;DHT22;13365;52.208;5.488;2023-08-30T01:53:03;19.40;89.90
25440;DHT22;13365;52.208;5.488;2023-08-30T01:55:29;19.40;89.60
25440;DHT22;13365;52.208;5.488;2023-08-30T01:57:55;19.50;89.70
25440;DHT22;13365;52.208;5.488;2023-08-30T02:00:21;19.40;89.80
25440;DHT22;13365;52.208;5.488;2023-08-30T02:02:47;19.40;89.80
25440;DHT22;13365;52.208;5.488;2023-08-30T02:05:13;19.40;89.80
25440;DHT22;13365;52.208;5.488;2023-08-30T02:07:58;19.40;89.80
25440;DHT22;13365;52.208;5.488;2023-08-30T02:10:29;19.50;89.90
25440;DHT22;13365;52.208;5.488;2023-08-30T02:12:57;19.50;89.50
25440;DHT22;13365;52.208;5.488;2023-08-30T02:15:25;19.50;89.70
25440;DHT22;13365;52.208;5.488;2023-08-30T02:17:52;19.40;89.40
25440;DHT22;13365;52.208;5.488;2023-08-30T02:20:18;19.40;89.90
25440;DHT22;13365;52.208;5.488;2023-08-30T02:22:43;19.30;90.00
25440;DHT22;13365;52.208;5.488;2023-08-30T02:25:09;19.40;90.00
25440;DHT22;13365;52.208;5.488;2023-08-30T02:27:35;19.40;90.00
25440;DHT22;13365;52.208;5.488;2023-08-30T02:30:01;19.20;89.90
25440;DHT22;13365;52.208;5.488;2023-08-30T02:32:28;19.40;90.00
25440;DHT22;13365;52.208;5.488;2023-08-30T02:34:53;19.30;90.00
25440;DHT22;13365;52.208;5.488;2023-08-30T02:37:19;19.30;90.10
25440;DHT22;13365;52.208;5.488;2023-08-30T02:39:45;19.50;90.00
25440;DHT22;13365;52.208;5.488;2023-08-30T02:42:10;19.50;90.00
25440;DHT22;13365;52.208;5.488;2023-08-30T02:44:36;19.60;89.70
25440;DHT22;13365;52.208;5.488;2023-08-30T02:47:01;19.60;89.60
25440;DHT22;13365;52.208;5.488;2023-08-30T02:49:27;19.70;89.60
25440;DHT22;13365;52.208;5.488;2023-08-30T02:51:52;19.70;89.30
25440;DHT22;13365;52.208;5.488;2023-08-30T02:54:18;19.70;89.30
25440;DHT22;13365;52.208;5.488;2023-08-30T02:56:44;19.70;88.90
25440;DHT22;13365;52.208;5.488;2023-08-30T02:59:10;19.70;89.00
25440;DHT22;13365;52.208;5.488;2023-08-30T03:01:35;19.60;88.80
25440;DHT22;13365;52.208;5.488;2023-08-30T03:04:01;19.60;89.00
25440;DHT22;13365;52.208;5.488;2023-08-30T03:06:26;19.60;89.10
25440;DHT22;13365;52.208;5.488;2023-08-30T03:08:53;19.60;89.20
25440;DHT22;13365;52.208;5.488;2023-08-30T03:11:19;19.50;89.10
25440;DHT22;13365;52.208;5.488;2023-08-30T03:13:45;19.50;89.00
25440;DHT22;13365;52.208;5.488;2023-08-30T03:16:15;19.60;88.90
25440;DHT22;13365;52.208;5.488;2023-08-30T03:18:42;19.70;88.90
25440;DHT22;13365;52.208;5.488;2023-08-30T03:21:08;19.70;88.90
25440;DHT22;13365;52.208;5.488;2023-08-30T03:23:34;19.80;88.90
25440;DHT22;13365;52.208;5.488;2023-08-30T03:28:36;19.80;88.60
25440;DHT22;13365;52.208;5.488;2023-08-30T03:31:01;19.80;88.50
25440;DHT22;13365;52.208;5.488;2023-08-30T03:33:27;19.80;88.50
25440;DHT22;13365;52.208;5.488;2023-08-30T03:35:52;19.80;88.40
25440;DHT22;13365;52.208;5.488;2023-08-30T03:38:18;19.80;88.00
25440;DHT22;13365;52.208;5.488;2023-08-30T03:40:44;19.70;87.80
25440;DHT22;13365;52.208;5.488;2023-08-30T03:43:09;19.80;87.70
25440;DHT22;13365;52.208;5.488;2023-08-30T03:45:36;19.70;87.40
25440;DHT22;13365;52.208;5.488;2023-08-30T03:48:03;19.70;87.50
25440;DHT22;13365;52.208;5.488;2023-08-30T03:50:29;19.80;87.30
25440;DHT22;13365;52.208;5.488;2023-08-30T03:52:54;19.70;87.20
25440;DHT22;13365;52.208;5.488;2023-08-30T03:55:19;19.60;86.90
25440;DHT22;13365;52.208;5.488;2023-08-30T03:57:46;19.70;86.90
25440;DHT22;13365;52.208;5.488;2023-08-30T04:00:12;19.60;87.10
25440;DHT22;13365;52.208;5.488;2023-08-30T04:02:37;19.50;86.80
25440;DHT22;13365;52.208;5.488;2023-08-30T04:05:03;19.50;86.80
25440;DHT22;13365;52.208;5.488;2023-08-30T04:07:33;19.40;87.00
25440;DHT22;13365;52.208;5.488;2023-08-30T04:09:59;19.30;87.10
25440;DHT22;13365;52.208;5.488;2023-08-30T04:12:24;19.40;87.00
25440;DHT22;13365;52.208;5.488;2023-08-30T04:14:50;19.40;87.00
25440;DHT22;13365;52.208;5.488;2023-08-30T04:17:15;19.20;86.70
25440;DHT22;13365;52.208;5.488;2023-08-30T04:19:41;19.20;86.70
25440;DHT22;13365;52.208;5.488;2023-08-30T04:22:06;19.20;86.60
25440;DHT22;13365;52.208;5.488;2023-08-30T04:24:31;19.20;86.50
25440;DHT22;13365;52.208;5.488;2023-08-30T04:26:57;19.10;86.50
25440;DHT22;13365;52.208;5.488;2023-08-30T04:29:22;19.10;86.70
25440;DHT22;13365;52.208;5.488;2023-08-30T04:31:48;19.00;86.50
25440;DHT22;13365;52.208;5.488;2023-08-30T04:34:13;19.00;86.50
25440;DHT22;13365;52.208;5.488;2023-08-30T04:36:40;18.90;86.70
25440;DHT22;13365;52.208;5.488;2023-08-30T04:39:06;18.90;86.50
25440;DHT22;13365;52.208;5.488;2023-08-30T04:41:31;18.90;86.70
25440;DHT22;13365;52.208;5.488;2023-08-30T04:43:59;18.80;86.60
25440;DHT22;13365;52.208;5.488;2023-08-30T04:46:24;18.60;86.90
25440;DHT22;13365;52.208;5.488;2023-08-30T04:48:49;18.60;87.20
25440;DHT22;13365;52.208;5.488;2023-08-30T04:51:15;18.50;86.90
25440;DHT22;13365;52.208;5.488;2023-08-30T04:53:40;18.50;87.30
25440;DHT22;13365;52.208;5.488;2023-08-30T04:56:14;18.50;87.20
25440;DHT22;13365;52.208;5.488;2023-08-30T04:58:40;18.50;87.50
25440;DHT22;13365;52.208;5.488;2023-08-30T05:01:06;18.40;87.80
25440;DHT22;13365;52.208;5.488;2023-08-30T05:03:32;18.40;87.80
25440;DHT22;13365;52.208;5.488;2023-08-30T05:05:58;18.40;87.80
25440;DHT22;13365;52.208;5.488;2023-08-30T05:08:24;18.50;87.70
25440;DHT22;13365;52.208;5.488;2023-08-30T05:10:49;18.40;87.80
25440;DHT22;13365;52.208;5.488;2023-08-30T05:13:16;18.40;87.80
25440;DHT22;13365;52.208;5.488;2023-08-30T05:15:41;18.40;87.70
25440;DHT22;13365;52.208;5.488;2023-08-30T05:18:07;18.50;87.90
25440;DHT22;13365;52.208;5.488;2023-08-30T05:20:32;18.60;87.50
25440;DHT22;13365;52.208;5.488;2023-08-30T05:22:58;18.70;87.40
25440;DHT22;13365;52.208;5.488;2023-08-30T05:25:24;18.70;87.30
25440;DHT22;13365;52.208;5.488;2023-08-30T05:27:49;18.70;87.50
25440;DHT22;13365;52.208;5.488;2023-08-30T05:30:15;18.70;87.60
25440;DHT22;13365;52.208;5.488;2023-08-30T05:32:41;18.70;87.70
25440;DHT22;13365;52.208;5.488;2023-08-30T05:35:07;18.60;87.70
25440;DHT22;13365;52.208;5.488;2023-08-30T05:37:33;18.50;88.10
25440;DHT22;13365;52.208;5.488;2023-08-30T05:39:58;18.60;88.40
25440;DHT22;13365;52.208;5.488;2023-08-30T05:42:24;18.50;88.50
25440;DHT22;13365;52.208;5.488;2023-08-30T05:44:49;18.60;88.60
25440;DHT22;13365;52.208;5.488;2023-08-30T05:47:15;18.50;88.60
25440;DHT22;13365;52.208;5.488;2023-08-30T05:49:42;18.50;89.00
25440;DHT22;13365;52.208;5.488;2023-08-30T05:52:07;18.50;89.30
25440;DHT22;13365;52.208;5.488;2023-08-30T05:54:33;18.50;89.20
25440;DHT22;13365;52.208;5.488;2023-08-30T05:56:59;18.50;89.80
25440;DHT22;13365;52.208;5.488;2023-08-30T05:59:25;18.60;90.00
25440;DHT22;13365;52.208;5.488;2023-08-30T06:01:50;18.90;90.00
25440;DHT22;13365;52.208;5.488;2023-08-30T06:04:16;18.90;89.60
25440;DHT22;13365;52.208;5.488;2023-08-30T06:06:41;19.00;89.70
25440;DHT22;13365;52.208;5.488;2023-08-30T06:09:07;19.00;89.70
25440;DHT22;13365;52.208;5.488;2023-08-30T06:11:34;19.30;89.40
25440;DHT22;13365;52.208;5.488;2023-08-30T06:13:59;19.20;89.60
25440;DHT22;13365;52.208;5.488;2023-08-30T06:16:25;19.20;89.60
25440;DHT22;13365;52.208;5.488;2023-08-30T06:18:51;19.30;90.00
25440;DHT22;13365;52.208;5.488;2023-08-30T06:21:16;19.40;89.30
25440;DHT22;13365;52.208;5.488;2023-08-30T06:23:42;19.50;89.20
25440;DHT22;13365;52.208;5.488;2023-08-30T06:26:07;19.60;88.80
25440;DHT22;13365;52.208;5.488;2023-08-30T06:28:33;19.70;88.70
25440;DHT22;13365;52.208;5.488;2023-08-30T06:30:58;19.50;88.60
25440;DHT22;13365;52.208;5.488;2023-08-30T06:33:24;19.70;88.70
25440;DHT22;13365;52.208;5.488;2023-08-30T06:35:50;19.70;88.80
25440;DHT22;13365;52.208;5.488;2023-08-30T06:38:19;19.60;89.20
25440;DHT22;13365;52.208;5.488;2023-08-30T06:40:45;19.50;89.80
25440;DHT22;13365;52.208;5.488;2023-08-30T06:43:12;19.50;90.10
25440;DHT22;13365;52.208;5.488;2023-08-30T06:45:38;19.30;90.60
25440;DHT22;13365;52.208;5.488;2023-08-30T06:48:05;19.20;90.80
25440;DHT22;13365;52.208;5.488;2023-08-30T06:50:31;19.20;90.90
25440;DHT22;13365;52.208;5.488;2023-08-30T06:52:57;19.20;91.30
25440;DHT22;13365;52.208;5.488;2023-08-30T06:55:22;19.20;91.50
25440;DHT22;13365;52.208;5.488;2023-08-30T06:57:48;19.10;91.50
25440;DHT22;13365;52.208;5.488;2023-08-30T07:00:17;19.00;91.60
25440;DHT22;13365;52.208;5.488;2023-08-30T07:02:43;18.90;91.90
25440;DHT22;13365;52.208;5.488;2023-08-30T07:05:13;18.60;92.30
25440;DHT22;13365;52.208;5.488;2023-08-30T07:07:39;18.60;92.80
25440;DHT22;13365;52.208;5.488;2023-08-30T07:10:05;18.40;93.10
25440;DHT22;13365;52.208;5.488;2023-08-30T07:12:31;18.30;93.50
25440;DHT22;13365;52.208;5.488;2023-08-30T07:14:56;18.20;93.90
25440;DHT22;13365;52.208;5.488;2023-08-30T07:17:22;18.30;94.10
25440;DHT22;13365;52.208;5.488;2023-08-30T07:19:48;18.30;94.20
25440;DHT22;13365;52.208;5.488;2023-08-30T07:22:14;18.30;94.30
25440;DHT22;13365;52.208;5.488;2023-08-30T07:24:42;18.30;94.50
25440;DHT22;13365;52.208;5.488;2023-08-30T07:27:08;18.30;94.50
25440;DHT22;13365;52.208;5.488;2023-08-30T07:29:33;18.50;94.60
25440;DHT22;13365;52.208;5.488;2023-08-30T07:31:59;18.50;94.40
25440;DHT22;13365;52.208;5.488;2023-08-30T07:34:24;18.60;94.40
25440;DHT22;13365;52.208;5.488;2023-08-30T07:36:50;18.60;94.30
25440;DHT22;13365;52.208;5.488;2023-08-30T07:39:15;18.60;94.40
25440;DHT22;13365;52.208;5.488;2023-08-30T07:41:41;18.70;94.60
25440;DHT22;13365;52.208;5.488;2023-08-30T07:44:06;18.80;94.70
25440;DHT22;13365;52.208;5.488;2023-08-30T07:46:32;18.80;94.70
25440;DHT22;13365;52.208;5.488;2023-08-30T07:48:58;18.70;94.80
25440;DHT22;13365;52.208;5.488;2023-08-30T07:51:23;18.70;95.10
25440;DHT22;13365;52.208;5.488;2023-08-30T07:53:49;18.70;95.10
25440;DHT22;13365;52.208;5.488;2023-08-30T07:56:14;18.90;95.00
25440;DHT22;13365;52.208;5.488;2023-08-30T07:58:40;18.90;95.00
25440;DHT22;13365;52.208;5.488;2023-08-30T08:01:06;18.90;95.10
25440;DHT22;13365;52.208;5.488;2023-08-30T08:03:31;18.70;95.30
25440;DHT22;13365;52.208;5.488;2023-08-30T08:05:58;18.80;95.50
25440;DHT22;13365;52.208;5.488;2023-08-30T08:08:26;18.70;95.90
25440;DHT22;13365;52.208;5.488;2023-08-30T08:10:51;18.60;96.20
25440;DHT22;13365;52.208;5.488;2023-08-30T08:13:17;18.90;96.20
25440;DHT22;13365;52.208;5.488;2023-08-30T08:15:43;18.90;95.90
25440;DHT22;13365;52.208;5.488;2023-08-30T08:18:09;19.00;96.00
25440;DHT22;13365;52.208;5.488;2023-08-30T08:20:35;18.90;95.90
25440;DHT22;13365;52.208;5.488;2023-08-30T08:23:02;18.90;96.10
25440;DHT22;13365;52.208;5.488;2023-08-30T08:25:28;18.90;96.50
25440;DHT22;13365;52.208;5.488;2023-08-30T08:27:54;19.00;96.60
25440;DHT22;13365;52.208;5.488;2023-08-30T08:30:19;19.10;96.50
25440;DHT22;13365;52.208;5.488;2023-08-30T08:32:46;19.10;96.20
25440;DHT22;13365;52.208;5.488;2023-08-30T08:35:13;18.90;96.50
25440;DHT22;13365;52.208;5.488;2023-08-30T08:37:38;18.80;96.80
25440;DHT22;13365;52.208;5.488;2023-08-30T08:40:04;18.70;97.10
25440;DHT22;13365;52.208;5.488;2023-08-30T08:42:35;18.70;97.20
25440;DHT22;13365;52.208;5.488;2023-08-30T08:45:02;18.90;97.20
25440;DHT22;13365;52.208;5.488;2023-08-30T08:47:30;18.90;97.40
25440;DHT22;13365;52.208;5.488;2023-08-30T08:49:56;18.90;97.20
25440;DHT22;13365;52.208;5.488;2023-08-30T08:52:23;18.90;97.00
25440;DHT22;13365;52.208;5.488;2023-08-30T08:54:50;19.00;97.10
25440;DHT22;13365;52.208;5.488;2023-08-30T08:57:16;19.00;97.20
25440;DHT22;13365;52.208;5.488;2023-08-30T08:59:42;19.00;97.00
25440;DHT22;13365;52.208;5.488;2023-08-30T09:02:11;19.00;97.20
25440;DHT22;13365;52.208;5.488;2023-08-30T09:04:39;19.20;97.30
25440;DHT22;13365;52.208;5.488;2023-08-30T09:07:05;19.20;97.20
25440;DHT22;13365;52.208;5.488;2023-08-30T09:09:31;19.30;97.10
25440;DHT22;13365;52.208;5.488;2023-08-30T09:11:56;19.20;97.10
25440;DHT22;13365;52.208;5.488;2023-08-30T09:14:22;19.20;96.90
25440;DHT22;13365;52.208;5.488;2023-08-30T09:17:01;19.10;97.00
25440;DHT22;13365;52.208;5.488;2023-08-30T09:19:27;19.20;97.10
25440;DHT22;13365;52.208;5.488;2023-08-30T09:21:54;19.20;97.20
25440;DHT22;13365;52.208;5.488;2023-08-30T09:24:22;19.00;97.50
25440;DHT22;13365;52.208;5.488;2023-08-30T09:26:49;19.20;97.60
25440;DHT22;13365;52.208;5.488;2023-08-30T09:29:17;19.30;97.30
25440;DHT22;13365;52.208;5.488;2023-08-30T09:31:42;19.30;97.50
25440;DHT22;13365;52.208;5.488;2023-08-30T09:34:09;19.40;97.60
25440;DHT22;13365;52.208;5.488;2023-08-30T09:36:40;19.50;97.40
25440;DHT22;13365;52.208;5.488;2023-08-30T09:39:10;19.70;97.10
25440;DHT22;13365;52.208;5.488;2023-08-30T09:41:47;19.50;97.10
25440;DHT22;13365;52.208;5.488;2023-08-30T09:44:13;19.50;97.00
25440;DHT22;13365;52.208;5.488;2023-08-30T09:46:46;19.70;97.20
25440;DHT22;13365;52.208;5.488;2023-08-30T09:49:12;19.70;97.10
25440;DHT22;13365;52.208;5.488;2023-08-30T09:51:39;19.70;97.50
25440;DHT22;13365;52.208;5.488;2023-08-30T09:54:15;19.80;97.40
25440;DHT22;13365;52.208;5.488;2023-08-30T09:56:44;20.00;97.30
25440;DHT22;13365;52.208;5.488;2023-08-30T09:59:11;20.10;97.20
25440;DHT22;13365;52.208;5.488;2023-08-30T10:01:39;20.20;96.90
25440;DHT22;13365;52.208;5.488;2023-08-30T10:04:07;20.20;96.60
25440;DHT22;13365;52.208;5.488;2023-08-30T10:06:35;20.20;96.80
25440;DHT22;13365;52.208;5.488;2023-08-30T10:09:01;20.30;96.80
25440;DHT22;13365;52.208;5.488;2023-08-30T10:11:29;20.40;96.80
25440;DHT22;13365;52.208;5.488;2023-08-30T10:13:59;20.30;96.70
25440;DHT22;13365;52.208;5.488;2023-08-30T10:16:26;20.20;96.80
25440;DHT22;13365;52.208;5.488;2023-08-30T10:18:57;20.40;96.90
25440;DHT22;13365;52.208;5.488;2023-08-30T10:21:25;20.50;96.70
25440;DHT22;13365;52.208;5.488;2023-08-30T10:23:52;20.60;96.60
25440;DHT22;13365;52.208;5.488;2023-08-30T10:26:23;20.70;96.60
25440;DHT22;13365;52.208;5.488;2023-08-30T10:28:51;20.50;96.50
25440;DHT22;13365;52.208;5.488;2023-08-30T10:31:17;20.50;96.90
25440;DHT22;13365;52.208;5.488;2023-08-30T10:33:56;20.70;96.50
25440;DHT22;13365;52.208;5.488;2023-08-30T10:36:32;20.50;96.40
25440;DHT22;13365;52.208;5.488;2023-08-30T10:38:57;20.40;96.50
25440;DHT22;13365;52.208;5.488;2023-08-30T10:41:26;20.40;97.30
25440;DHT22;13365;52.208;5.488;2023-08-30T10:43:54;20.80;97.30
25440;DHT22;13365;52.208;5.488;2023-08-30T10:46:33;20.70;97.30
25440;DHT22;13365;52.208;5.488;2023-08-30T10:49:12;20.80;98.50
25440;DHT22;13365;52.208;5.488;2023-08-30T10:51:41;20.90;98.50
25440;DHT22;13365;52.208;5.488;2023-08-30T10:54:14;21.00;99.30
25440;DHT22;13365;52.208;5.488;2023-08-30T10:59:26;21.30;97.20
25440;DHT22;13365;52.208;5.488;2023-08-30T11:01:53;21.30;96.70
25440;DHT22;13365;52.208;5.488;2023-08-30T11:04:19;21.40;96.10
25440;DHT22;13365;52.208;5.488;2023-08-30T11:06:46;21.10;95.60
25440;DHT22;13365;52.208;5.488;2023-08-30T11:09:14;21.10;95.40
25440;DHT22;13365;52.208;5.488;2023-08-30T11:11:40;21.40;95.70
25440;DHT22;13365;52.208;5.488;2023-08-30T11:14:09;21.40;93.20
25440;DHT22;13365;52.208;5.488;2023-08-30T11:16:36;21.20;94.50
25440;DHT22;13365;52.208;5.488;2023-08-30T11:19:05;21.40;93.60
25440;DHT22;13365;52.208;5.488;2023-08-30T11:21:33;21.40;93.50
25440;DHT22;13365;52.208;5.488;2023-08-30T11:23:59;21.20;92.10
25440;DHT22;13365;52.208;5.488;2023-08-30T11:26:25;20.90;92.00
25440;DHT22;13365;52.208;5.488;2023-08-30T11:28:50;20.70;92.40
25440;DHT22;13365;52.208;5.488;2023-08-30T11:31:27;21.00;92.30
25440;DHT22;13365;52.208;5.488;2023-08-30T11:33:59;21.10;92.30
25440;DHT22;13365;52.208;5.488;2023-08-30T11:36:30;21.00;92.70
25440;DHT22;13365;52.208;5.488;2023-08-30T11:38:57;21.10;91.40
25440;DHT22;13365;52.208;5.488;2023-08-30T11:41:23;21.10;91.70
25440;DHT22;13365;52.208;5.488;2023-08-30T11:43:52;21.10;92.20
25440;DHT22;13365;52.208;5.488;2023-08-30T11:46:18;20.90;91.90
25440;DHT22;13365;52.208;5.488;2023-08-30T11:48:46;21.10;91.50
25440;DHT22;13365;52.208;5.488;2023-08-30T11:51:13;21.10;91.80
25440;DHT22;13365;52.208;5.488;2023-08-30T11:53:39;21.10;91.80
25440;DHT22;13365;52.208;5.488;2023-08-30T11:56:06;21.20;91.90
25440;DHT22;13365;52.208;5.488;2023-08-30T11:58:35;21.10;92.50
25440;DHT22;13365;52.208;5.488;2023-08-30T12:01:02;20.90;91.70
25440;DHT22;13365;52.208;5.488;2023-08-30T12:03:29;20.80;91.30
25440;DHT22;13365;52.208;5.488;2023-08-30T12:05:55;21.10;91.90
25440;DHT22;13365;52.208;5.488;2023-08-30T12:08:25;21.30;91.00
25440;DHT22;13365;52.208;5.488;2023-08-30T12:10:52;21.40;90.90
25440;DHT22;13365;52.208;5.488;2023-08-30T12:13:22;21.40;91.50
25440;DHT22;13365;52.208;5.488;2023-08-30T12:15:48;21.50;91.50
25440;DHT22;13365;52.208;5.488;2023-08-30T12:18:13;21.60;91.30
25440;DHT22;13365;52.208;5.488;2023-08-30T12:20:39;21.40;91.50
25440;DHT22;13365;52.208;5.488;2023-08-30T12:23:04;21.70;91.10
25440;DHT22;13365;52.208;5.488;2023-08-30T12:25:30;21.70;90.00
25440;DHT22;13365;52.208;5.488;2023-08-30T12:27:57;22.00;89.20
25440;DHT22;13365;52.208;5.488;2023-08-30T12:30:23;21.90;85.20
25440;DHT22;13365;52.208;5.488;2023-08-30T12:32:48;21.80;85.80
25440;DHT22;13365;52.208;5.488;2023-08-30T12:35:14;21.70;86.30
25440;DHT22;13365;52.208;5.488;2023-08-30T12:37:40;21.80;86.50
25440;DHT22;13365;52.208;5.488;2023-08-30T12:40:06;21.80;84.90
25440;DHT22;13365;52.208;5.488;2023-08-30T12:42:32;21.60;84.40
25440;DHT22;13365;52.208;5.488;2023-08-30T12:44:58;21.70;84.00
25440;DHT22;13365;52.208;5.488;2023-08-30T12:47:23;21.70;82.70
25440;DHT22;13365;52.208;5.488;2023-08-30T12:49:49;22.20;81.60
25440;DHT22;13365;52.208;5.488;2023-08-30T12:52:14;22.40;81.70
25440;DHT22;13365;52.208;5.488;2023-08-30T12:54:41;22.30;80.30
25440;DHT22;13365;52.208;5.488;2023-08-30T12:57:06;22.20;80.30
25440;DHT22;13365;52.208;5.488;2023-08-30T12:59:32;22.30;81.10
25440;DHT22;13365;52.208;5.488;2023-08-30T13:01:58;22.50;83.30
25440;DHT22;13365;52.208;5.488;2023-08-30T13:04:23;22.40;82.20
25440;DHT22;13365;52.208;5.488;2023-08-30T13:06:49;22.50;84.70
25440;DHT22;13365;52.208;5.488;2023-08-30T13:09:14;22.80;85.20
25440;DHT22;13365;52.208;5.488;2023-08-30T13:11:39;22.90;84.30
25440;DHT22;13365;52.208;5.488;2023-08-30T13:14:05;23.10;84.00
25440;DHT22;13365;52.208;5.488;2023-08-30T13:16:30;23.40;81.40
25440;DHT22;13365;52.208;5.488;2023-08-30T13:18:56;23.50;79.40
25440;DHT22;13365;52.208;5.488;2023-08-30T13:21:21;23.30;80.20
25440;DHT22;13365;52.208;5.488;2023-08-30T13:23:47;23.30;80.40
25440;DHT22;13365;52.208;5.488;2023-08-30T13:26:12;23.30;80.10
25440;DHT22;13365;52.208;5.488;2023-08-30T13:28:38;23.10;79.30
25440;DHT22;13365;52.208;5.488;2023-08-30T13:31:07;22.70;77.90
25440;DHT22;13365;52.208;5.488;2023-08-30T13:33:32;22.20;78.40
25440;DHT22;13365;52.208;5.488;2023-08-30T13:35:58;21.70;79.80
25440;DHT22;13365;52.208;5.488;2023-08-30T13:38:23;21.40;81.00
25440;DHT22;13365;52.208;5.488;2023-08-30T13:40:57;21.70;82.20
25440;DHT22;13365;52.208;5.488;2023-08-30T13:43:23;22.00;82.90
25440;DHT22;13365;52.208;5.488;2023-08-30T13:45:57;22.20;82.80
25440;DHT22;13365;52.208;5.488;2023-08-30T13:48:22;22.20;82.50
25440;DHT22;13365;52.208;5.488;2023-08-30T13:50:48;22.00;79.50
25440;DHT22;13365;52.208;5.488;2023-08-30T13:53:13;22.20;82.70
25440;DHT22;13365;52.208;5.488;2023-08-30T13:55:39;22.20;80.60
25440;DHT22;13365;52.208;5.488;2023-08-30T13:58:04;22.60;81.00
25440;DHT22;13365;52.208;5.488;2023-08-30T14:00:30;22.30;80.80
25440;DHT22;13365;52.208;5.488;2023-08-30T14:02:55;22.40;81.20
25440;DHT22;13365;52.208;5.488;2023-08-30T14:05:20;22.20;82.70
25440;DHT22;13365;52.208;5.488;2023-08-30T14:07:46;21.90;83.20
25440;DHT22;13365;52.208;5.488;2023-08-30T14:10:11;21.60;84.90
25440;DHT22;13365;52.208;5.488;2023-08-30T14:12:43;21.00;85.80
25440;DHT22;13365;52.208;5.488;2023-08-30T14:15:08;21.00;87.60
25440;DHT22;13365;52.208;5.488;2023-08-30T14:17:35;20.80;88.40
25440;DHT22;13365;52.208;5.488;2023-08-30T14:20:00;20.90;89.30
25440;DHT22;13365;52.208;5.488;2023-08-30T14:22:26;20.70;89.50
25440;DHT22;13365;52.208;5.488;2023-08-30T14:24:51;20.60;90.00
25440;DHT22;13365;52.208;5.488;2023-08-30T14:27:17;20.40;90.20
25440;DHT22;13365;52.208;5.488;2023-08-30T14:29:42;20.20;89.00
25440;DHT22;13365;52.208;5.488;2023-08-30T14:32:08;20.10;88.00
25440;DHT22;13365;52.208;5.488;2023-08-30T14:34:33;20.00;88.60
25440;DHT22;13365;52.208;5.488;2023-08-30T14:36:59;20.20;88.70
25440;DHT22;13365;52.208;5.488;2023-08-30T14:39:24;20.10;89.30
25440;DHT22;13365;52.208;5.488;2023-08-30T14:41:50;20.00;90.00
25440;DHT22;13365;52.208;5.488;2023-08-30T14:44:15;19.90;90.00
25440;DHT22;13365;52.208;5.488;2023-08-30T14:46:42;19.70;90.40
25440;DHT22;13365;52.208;5.488;2023-08-30T14:49:08;19.90;90.50
25440;DHT22;13365;52.208;5.488;2023-08-30T14:51:33;20.10;90.80
25440;DHT22;13365;52.208;5.488;2023-08-30T14:53:59;20.00;90.70
25440;DHT22;13365;52.208;5.488;2023-08-30T14:56:24;19.90;91.30
25440;DHT22;13365;52.208;5.488;2023-08-30T14:58:50;20.10;91.50
25440;DHT22;13365;52.208;5.488;2023-08-30T15:01:16;20.20;91.50
25440;DHT22;13365;52.208;5.488;2023-08-30T15:03:42;20.20;91.70
25440;DHT22;13365;52.208;5.488;2023-08-30T15:06:09;20.70;91.70
25440;DHT22;13365;52.208;5.488;2023-08-30T15:08:35;20.70;91.40
25440;DHT22;13365;52.208;5.488;2023-08-30T15:11:00;20.70;91.30
25440;DHT22;13365;52.208;5.488;2023-08-30T15:13:25;20.70;91.50
25440;DHT22;13365;52.208;5.488;2023-08-30T15:15:51;20.80;92.10
25440;DHT22;13365;52.208;5.488;2023-08-30T15:18:17;21.10;92.10
25440;DHT22;13365;52.208;5.488;2023-08-30T15:20:42;21.30;91.70
25440;DHT22;13365;52.208;5.488;2023-08-30T15:23:11;20.90;90.70
25440;DHT22;13365;52.208;5.488;2023-08-30T15:25:42;20.80;90.20
25440;DHT22;13365;52.208;5.488;2023-08-30T15:28:08;20.40;90.10
25440;DHT22;13365;52.208;5.488;2023-08-30T15:30:33;20.30;90.50
25440;DHT22;13365;52.208;5.488;2023-08-30T15:32:59;20.00;90.60